Time;durP1;ratioP1;P1;durP2;ratioP2;P2;SDS_P1;SDS_P2;PMS_P1;PMS_P2;Temp;Humidity;BMP_temperature;BMP_pressure;BME280_temperature;BME280_humidity;BME280_pressure;Samples;Min_cycle;Max_cycle;Signal;HPM_P1;HPM_P2
2023/05/01 00:00:20;;;;;;;4.67;2.90;;;;;;;;;;4985958;28;20172;-68
2023/05/01 00:02:45;;;;;;;4.50;2.67;;;;;;;;;;4982208;28;20657;-69
2023/05/01 00:05:11;;;;;;;4.73;2.77;;;;;;;;;;4983238;28;20218;-69
2023/05/01 00:07:36;;;;;;;4.83;2.90;;;;;;;;;;4982211;28;20314;-68
2023/05/01 00:10:01;;;;;;;4.07;2.70;;;;;;;;;;4987036;28;20692;-68
2023/05/01 00:12:26;;;;;;;3.33;2.47;;;;;;;;;;4974561;28;20172;-68
2023/05/01 00:14:55;;;;;;;4.03;2.47;;;;;;;;;;4981441;28;20226;-68
2023/05/01 00:17:21;;;;;;;4.17;2.60;;;;;;;;;;4981736;28;20195;-69
2023/05/01 00:19:50;;;;;;;3.47;2.77;;;;;;;;;;4981615;28;20176;-68
2023/05/01 00:22:15;;;;;;;4.27;2.47;;;;;;;;;;4982513;28;20218;-68
2023/05/01 00:24:40;;;;;;;5.57;2.87;;;;;;;;;;4981699;28;20192;-68
2023/05/01 00:27:05;;;;;;;3.07;2.03;;;;;;;;;;4984180;28;20168;-69
2023/05/01 00:29:30;;;;;;;4.23;2.97;;;;;;;;;;4983098;28;20542;-69
2023/05/01 00:31:56;;;;;;;3.93;3.20;;;;;;;;;;4982098;28;20190;-68
2023/05/01 00:34:21;;;;;;;7.07;2.90;;;;;;;;;;4981699;28;20195;-69
2023/05/01 00:36:46;;;;;;;3.40;2.53;;;;;;;;;;4985332;28;20176;-69
2023/05/01 00:39:12;;;;;;;3.70;2.77;;;;;;;;;;4988779;28;20665;-68
2023/05/01 00:41:37;;;;;;;4.37;2.73;;;;;;;;;;4988921;28;20195;-68
2023/05/01 00:44:02;;;;;;;8.50;3.07;;;;;;;;;;4989617;28;20187;-68
2023/05/01 00:46:29;;;;;;;3.73;2.47;;;;;;;;;;4986610;28;20616;-69
2023/05/01 00:48:54;;;;;;;4.47;2.63;;;;;;;;;;4989315;28;20198;-68
2023/05/01 00:51:20;;;;;;;5.13;2.83;;;;;;;;;;4993469;28;20669;-68
2023/05/01 00:53:45;;;;;;;4.43;2.83;;;;;;;;;;4991376;28;20187;-68
2023/05/01 00:56:10;;;;;;;3.97;2.90;;;;;;;;;;4989227;28;20211;-69
2023/05/01 00:58:37;;;;;;;7.20;3.83;;;;;;;;;;4992313;28;20215;-68
2023/05/01 01:01:03;;;;;;;5.63;2.90;;;;;;;;;;4991159;28;20203;-68
2023/05/01 01:03:30;;;;;;;3.63;2.60;;;;;;;;;;4992481;28;20663;-69
2023/05/01 01:06:18;;;;;;;4.07;2.90;;;;;;;;;;4993164;28;20203;-68
2023/05/01 01:08:52;;;;;;;6.47;3.20;;;;;;;;;;4986978;28;20246;-68
2023/05/01 01:11:18;;;;;;;5.07;3.10;;;;;;;;;;4992258;28;20715;-68
2023/05/01 01:13:46;;;;;;;5.97;3.27;;;;;;;;;;4977863;28;20191;-68
2023/05/01 01:16:18;;;;;;;3.60;2.70;;;;;;;;;;4983946;28;20629;-68
2023/05/01 01:18:54;;;;;;;3.43;2.57;;;;;;;;;;4985652;28;20183;-68
2023/05/01 01:21:27;;;;;;;6.33;2.83;;;;;;;;;;4983823;28;20199;-69
2023/05/01 01:24:04;;;;;;;3.33;2.90;;;;;;;;;;4984890;28;20176;-68
2023/05/01 01:26:32;;;;;;;4.87;3.37;;;;;;;;;;4984757;28;20183;-68
2023/05/01 01:29:13;;;;;;;3.17;2.60;;;;;;;;;;4981569;28;20182;-69
2023/05/01 01:31:45;;;;;;;5.33;2.77;;;;;;;;;;4984159;28;20665;-69
2023/05/01 01:34:14;;;;;;;4.43;2.93;;;;;;;;;;4984587;28;20496;-69
2023/05/01 01:36:43;;;;;;;2.87;2.50;;;;;;;;;;4984777;28;20187;-69
2023/05/01 01:39:12;;;;;;;4.00;2.60;;;;;;;;;;4997835;28;20217;-69
2023/05/01 01:41:38;;;;;;;3.23;2.43;;;;;;;;;;4985943;28;20219;-69
2023/05/01 01:44:07;;;;;;;8.33;3.07;;;;;;;;;;4985170;28;20179;-68
2023/05/01 01:46:35;;;;;;;6.90;2.43;;;;;;;;;;4985057;28;20216;-68
2023/05/01 01:49:04;;;;;;;3.50;2.53;;;;;;;;;;4990263;28;20238;-68
2023/05/01 01:51:30;;;;;;;5.03;3.40;;;;;;;;;;4992049;28;20850;-68
2023/05/01 01:53:57;;;;;;;3.67;2.60;;;;;;;;;;4988685;28;20175;-69
2023/05/01 01:56:24;;;;;;;4.33;3.10;;;;;;;;;;4987976;28;20222;-69
2023/05/01 01:58:50;;;;;;;5.23;2.60;;;;;;;;;;4983925;28;20565;-69
2023/05/01 02:01:15;;;;;;;6.87;3.60;;;;;;;;;;4984732;28;20208;-69
2023/05/01 02:03:42;;;;;;;6.93;2.87;;;;;;;;;;4988450;28;20202;-69
2023/05/01 02:06:09;;;;;;;4.53;2.67;;;;;;;;;;4991352;28;20204;-69
2023/05/01 02:08:35;;;;;;;4.60;2.53;;;;;;;;;;4991230;28;20184;-69
2023/05/01 02:11:01;;;;;;;4.83;2.80;;;;;;;;;;4988507;28;20364;-69
2023/05/01 02:13:28;;;;;;;5.43;2.87;;;;;;;;;;4982254;28;20196;-69
2023/05/01 02:15:55;;;;;;;4.27;2.77;;;;;;;;;;4989210;28;20719;-69
2023/05/01 02:18:20;;;;;;;4.83;3.10;;;;;;;;;;4984953;28;20544;-69
2023/05/01 02:20:46;;;;;;;3.33;2.40;;;;;;;;;;4984265;28;20218;-69
2023/05/01 02:23:11;;;;;;;4.40;2.27;;;;;;;;;;4982586;28;20250;-69
2023/05/01 02:25:38;;;;;;;3.10;2.30;;;;;;;;;;4984529;28;20498;-69
2023/05/01 02:28:08;;;;;;;4.40;3.13;;;;;;;;;;4982067;28;20649;-69
2023/05/01 02:30:33;;;;;;;5.53;2.80;;;;;;;;;;4983499;28;20258;-69
2023/05/01 02:32:58;;;;;;;5.13;2.53;;;;;;;;;;4983359;28;20183;-69
2023/05/01 02:35:23;;;;;;;2.73;2.53;;;;;;;;;;4984295;28;20273;-69
2023/05/01 02:37:49;;;;;;;4.63;3.00;;;;;;;;;;4984276;28;20179;-69
2023/05/01 02:40:14;;;;;;;3.90;2.90;;;;;;;;;;4984234;28;20183;-69
2023/05/01 02:42:43;;;;;;;3.43;2.90;;;;;;;;;;4984729;28;20283;-69
2023/05/01 02:45:10;;;;;;;5.57;2.60;;;;;;;;;;4989446;28;20242;-69
2023/05/01 02:47:39;;;;;;;4.33;2.97;;;;;;;;;;4987814;28;20192;-69
2023/05/01 02:50:05;;;;;;;3.87;2.80;;;;;;;;;;4990326;28;20597;-69
2023/05/01 02:52:30;;;;;;;3.37;2.60;;;;;;;;;;4989126;28;20187;-69
2023/05/01 02:54:56;;;;;;;7.87;3.00;;;;;;;;;;4990002;28;20213;-69
2023/05/01 02:57:21;;;;;;;5.00;2.90;;;;;;;;;;4990992;28;20645;-69
2023/05/01 02:59:46;;;;;;;5.47;2.87;;;;;;;;;;4991284;28;20174;-69
2023/05/01 03:02:11;;;;;;;7.00;2.60;;;;;;;;;;4991143;28;20203;-69
2023/05/01 03:04:37;;;;;;;7.87;2.80;;;;;;;;;;4983789;28;20673;-69
2023/05/01 03:07:03;;;;;;;4.47;2.63;;;;;;;;;;4990659;28;20214;-69
2023/05/01 03:09:28;;;;;;;6.47;3.07;;;;;;;;;;4985287;28;20258;-69
2023/05/01 03:11:54;;;;;;;2.97;2.53;;;;;;;;;;4989673;28;20262;-69
2023/05/01 03:14:19;;;;;;;6.50;2.57;;;;;;;;;;4990544;28;20227;-69
2023/05/01 03:16:44;;;;;;;5.10;2.53;;;;;;;;;;4990563;28;20179;-69
2023/05/01 03:19:10;;;;;;;3.40;3.00;;;;;;;;;;4989036;28;20660;-68
2023/05/01 03:21:35;;;;;;;7.87;2.93;;;;;;;;;;4988429;28;20203;-69
2023/05/01 03:24:01;;;;;;;7.33;2.67;;;;;;;;;;4990647;28;20195;-69
2023/05/01 03:26:27;;;;;;;6.60;2.90;;;;;;;;;;4988888;28;20568;-69
2023/05/01 03:28:52;;;;;;;4.67;2.87;;;;;;;;;;4988663;28;20275;-69
2023/05/01 03:31:17;;;;;;;2.87;2.40;;;;;;;;;;4990713;28;20266;-69
2023/05/01 03:33:42;;;;;;;8.57;2.80;;;;;;;;;;4987563;28;20534;-69
2023/05/01 03:36:10;;;;;;;6.57;2.63;;;;;;;;;;4991009;28;20207;-69
2023/05/01 03:38:35;;;;;;;6.03;3.30;;;;;;;;;;4983023;28;20486;-69
2023/05/01 03:41:01;;;;;;;5.30;2.93;;;;;;;;;;4985824;28;20203;-70
2023/05/01 03:43:26;;;;;;;5.37;2.80;;;;;;;;;;4988533;28;20176;-69
2023/05/01 03:45:51;;;;;;;4.20;2.90;;;;;;;;;;4990339;28;20203;-69
2023/05/01 03:48:17;;;;;;;5.73;3.27;;;;;;;;;;4987693;28;20559;-69
2023/05/01 03:50:42;;;;;;;6.53;3.10;;;;;;;;;;4989499;28;20642;-70
2023/05/01 03:53:07;;;;;;;9.30;3.77;;;;;;;;;;4989071;28;20183;-70
2023/05/01 03:55:32;;;;;;;5.03;3.20;;;;;;;;;;4988673;28;20239;-69
2023/05/01 03:57:58;;;;;;;3.77;2.60;;;;;;;;;;4981575;28;20171;-70
2023/05/01 04:00:23;;;;;;;6.27;3.00;;;;;;;;;;4988286;28;20188;-69
2023/05/01 04:02:48;;;;;;;4.30;2.60;;;;;;;;;;4988714;28;20207;-69
2023/05/01 04:05:14;;;;;;;2.73;2.37;;;;;;;;;;4989814;28;20237;-70
2023/05/01 04:07:39;;;;;;;3.57;2.70;;;;;;;;;;4989629;28;20172;-70
2023/05/01 04:10:06;;;;;;;4.20;2.20;;;;;;;;;;4989689;28;20192;-69
2023/05/01 04:12:31;;;;;;;8.57;3.30;;;;;;;;;;4989845;28;20184;-69
2023/05/01 04:14:56;;;;;;;5.70;2.40;;;;;;;;;;4990087;28;20270;-69
2023/05/01 04:17:21;;;;;;;4.23;2.43;;;;;;;;;;4993087;28;20664;-69
2023/05/01 04:19:47;;;;;;;4.70;2.50;;;;;;;;;;4990358;28;20190;-70
2023/05/01 04:22:12;;;;;;;7.03;2.43;;;;;;;;;;4988900;28;20261;-69
2023/05/01 04:24:37;;;;;;;6.33;3.00;;;;;;;;;;4992242;28;20198;-70
2023/05/01 04:27:04;;;;;;;5.03;2.27;;;;;;;;;;4993444;28;20182;-69
2023/05/01 04:29:29;;;;;;;5.57;2.47;;;;;;;;;;4992971;28;20179;-70
2023/05/01 04:31:55;;;;;;;4.07;2.70;;;;;;;;;;4991374;28;20172;-70
2023/05/01 04:34:20;;;;;;;6.10;2.43;;;;;;;;;;4996012;28;20199;-69
2023/05/01 04:36:45;;;;;;;4.23;2.70;;;;;;;;;;4991506;28;20185;-69
2023/05/01 04:39:10;;;;;;;6.97;2.70;;;;;;;;;;4992498;28;20188;-69
2023/05/01 04:41:35;;;;;;;3.67;3.10;;;;;;;;;;4992706;28;20472;-69
2023/05/01 04:44:01;;;;;;;4.87;2.97;;;;;;;;;;4992597;28;20184;-70
2023/05/01 04:46:26;;;;;;;3.07;2.27;;;;;;;;;;4989029;28;20201;-69
2023/05/01 04:48:51;;;;;;;3.90;2.50;;;;;;;;;;4993069;28;20190;-69
2023/05/01 04:51:16;;;;;;;5.27;2.40;;;;;;;;;;4991291;28;20190;-69
2023/05/01 04:53:41;;;;;;;6.43;2.43;;;;;;;;;;4983787;28;20184;-69
2023/05/01 04:56:07;;;;;;;6.77;2.77;;;;;;;;;;4985297;28;20250;-69
2023/05/01 04:58:32;;;;;;;6.53;2.63;;;;;;;;;;4980643;28;20193;-69
2023/05/01 05:00:57;;;;;;;3.27;2.47;;;;;;;;;;4984713;28;20258;-69
2023/05/01 05:03:22;;;;;;;6.03;3.03;;;;;;;;;;4985929;28;20180;-69
2023/05/01 05:05:48;;;;;;;5.33;2.77;;;;;;;;;;4984630;28;20298;-69
2023/05/01 05:08:13;;;;;;;3.37;2.63;;;;;;;;;;4985540;28;20235;-69
2023/05/01 05:10:38;;;;;;;3.97;2.97;;;;;;;;;;4985503;28;20171;-69
2023/05/01 05:13:03;;;;;;;4.13;3.40;;;;;;;;;;4985477;28;20176;-69
2023/05/01 05:15:28;;;;;;;7.10;2.97;;;;;;;;;;4985910;28;20200;-69
2023/05/01 05:17:53;;;;;;;6.73;3.23;;;;;;;;;;4984926;28;20259;-69
2023/05/01 05:20:19;;;;;;;6.73;3.50;;;;;;;;;;4985308;28;20195;-69
2023/05/01 05:22:44;;;;;;;4.40;3.07;;;;;;;;;;4985217;28;20207;-69
2023/05/01 05:25:09;;;;;;;5.33;3.07;;;;;;;;;;4991313;28;20607;-69
2023/05/01 05:27:36;;;;;;;7.30;3.17;;;;;;;;;;4991718;28;20202;-69
2023/05/01 05:30:05;;;;;;;6.47;3.10;;;;;;;;;;4989235;28;20258;-69
2023/05/01 05:32:30;;;;;;;5.50;3.37;;;;;;;;;;4990126;28;20183;-69
2023/05/01 05:34:56;;;;;;;7.07;3.40;;;;;;;;;;4992186;28;20200;-69
2023/05/01 05:37:21;;;;;;;5.60;2.93;;;;;;;;;;4992565;28;20676;-69
2023/05/01 05:39:46;;;;;;;4.57;2.97;;;;;;;;;;4992695;28;20298;-70
2023/05/01 05:42:11;;;;;;;5.50;3.57;;;;;;;;;;4990667;28;20708;-70
2023/05/01 05:44:38;;;;;;;6.53;3.43;;;;;;;;;;4991588;28;20262;-69
2023/05/01 05:47:03;;;;;;;3.87;3.00;;;;;;;;;;4991487;28;20199;-69
2023/05/01 05:49:28;;;;;;;5.80;3.60;;;;;;;;;;4988682;28;20176;-70
2023/05/01 05:51:53;;;;;;;6.53;3.50;;;;;;;;;;4989472;28;20195;-69
2023/05/01 05:54:19;;;;;;;5.50;3.67;;;;;;;;;;4990812;28;20203;-68
2023/05/01 05:56:44;;;;;;;7.13;3.47;;;;;;;;;;4994831;22;20238;-69
2023/05/01 05:59:09;;;;;;;7.47;2.85;;;;;;;;;;4978949;28;20268;-70
2023/05/01 06:01:36;;;;;;;8.60;3.80;;;;;;;;;;4980289;28;20225;-72
2023/05/01 06:04:01;;;;;;;7.40;3.03;;;;;;;;;;4998356;28;20418;-70
2023/05/01 06:06:26;;;;;;;5.60;2.63;;;;;;;;;;4985238;28;20278;-69
2023/05/01 06:08:51;;;;;;;5.40;2.90;;;;;;;;;;4998484;28;20186;-70
2023/05/01 06:11:17;;;;;;;9.33;3.37;;;;;;;;;;4985426;28;20187;-70
2023/05/01 06:13:42;;;;;;;7.27;3.10;;;;;;;;;;4990081;28;20203;-70
2023/05/01 06:16:07;;;;;;;5.07;2.90;;;;;;;;;;4997294;28;20266;-70
2023/05/01 06:18:32;;;;;;;3.90;2.77;;;;;;;;;;4991068;28;20627;-70
2023/05/01 06:20:58;;;;;;;6.07;3.03;;;;;;;;;;4989125;28;20254;-70
2023/05/01 06:23:24;;;;;;;4.83;3.07;;;;;;;;;;4984813;28;20733;-70
2023/05/01 06:25:50;;;;;;;3.57;2.57;;;;;;;;;;4989833;28;20284;-70
2023/05/01 06:28:15;;;;;;;5.32;3.40;;;;;;;;;;4989051;28;20198;-69
2023/05/01 06:30:40;;;;;;;7.73;3.50;;;;;;;;;;4987454;28;20183;-70
2023/05/01 06:33:05;;;;;;;10.27;3.63;;;;;;;;;;4983487;28;20684;-71
2023/05/01 06:35:31;;;;;;;5.80;3.23;;;;;;;;;;4989994;28;20211;-70
2023/05/01 06:37:56;;;;;;;5.13;3.43;;;;;;;;;;4982017;28;20172;-70
2023/05/01 06:40:21;;;;;;;5.23;3.13;;;;;;;;;;4989776;28;20232;-71
2023/05/01 06:42:46;;;;;;;5.60;3.65;;;;;;;;;;4988103;28;20195;-70
2023/05/01 06:45:12;;;;;;;6.43;3.67;;;;;;;;;;4989760;28;20196;-70
2023/05/01 06:47:37;;;;;;;6.25;3.90;;;;;;;;;;5005095;28;20172;-71
2023/05/01 06:50:03;;;;;;;5.32;3.13;;;;;;;;;;4989458;28;20176;-71
2023/05/01 06:52:28;;;;;;;8.13;3.22;;;;;;;;;;4985931;28;20180;-70
2023/05/01 06:54:54;;;;;;;6.60;3.42;;;;;;;;;;4982167;28;20211;-69
2023/05/01 06:57:19;;;;;;;15.05;4.15;;;;;;;;;;4983799;28;20271;-70
2023/05/01 06:59:44;;;;;;;6.88;3.95;;;;;;;;;;4982786;28;20176;-71
2023/05/01 07:02:10;;;;;;;7.63;3.15;;;;;;;;;;4978544;28;20218;-71
2023/05/01 07:04:35;;;;;;;5.70;2.97;;;;;;;;;;4981274;28;20178;-71
2023/05/01 07:07:01;;;;;;;5.22;3.10;;;;;;;;;;4980186;28;20626;-70
2023/05/01 07:09:27;;;;;;;3.38;2.65;;;;;;;;;;4988359;28;20575;-70
2023/05/01 07:11:52;;;;;;;6.20;3.33;;;;;;;;;;4990074;28;20182;-71
2023/05/01 07:14:17;;;;;;;3.80;2.80;;;;;;;;;;4987058;28;20183;-70
2023/05/01 07:16:42;;;;;;;4.57;2.83;;;;;;;;;;4987140;28;20666;-70
2023/05/01 07:19:07;;;;;;;5.88;3.20;;;;;;;;;;4990973;28;20254;-71
2023/05/01 07:21:33;;;;;;;6.18;2.92;;;;;;;;;;4990950;28;20214;-71
2023/05/01 07:23:58;;;;;;;4.85;3.20;;;;;;;;;;4987871;28;20215;-70
2023/05/01 07:26:26;;;;;;;3.92;2.95;;;;;;;;;;5003108;28;20216;-70
2023/05/01 07:28:51;;;;;;;4.85;3.42;;;;;;;;;;4983400;28;20231;-70
2023/05/01 07:31:17;;;;;;;5.57;3.20;;;;;;;;;;4997381;28;20171;-71
2023/05/01 07:33:42;;;;;;;8.85;3.00;;;;;;;;;;4991301;28;20179;-70
2023/05/01 07:36:08;;;;;;;9.07;3.78;;;;;;;;;;4991307;28;20203;-70
2023/05/01 07:38:33;;;;;;;8.18;3.67;;;;;;;;;;5002035;28;20632;-70
2023/05/01 07:40:58;;;;;;;4.68;3.25;;;;;;;;;;4989060;28;20199;-71
2023/05/01 07:43:23;;;;;;;5.75;3.20;;;;;;;;;;4980303;28;20179;-71
2023/05/01 07:45:59;;;;;;;6.07;3.35;;;;;;;;;;4990866;28;20223;-71
2023/05/01 07:48:24;;;;;;;6.20;3.78;;;;;;;;;;5001221;28;20182;-71
2023/05/01 07:50:50;;;;;;;6.93;3.08;;;;;;;;;;4998358;28;20187;-71
2023/05/01 07:53:15;;;;;;;6.38;3.72;;;;;;;;;;5004700;28;20180;-70
2023/05/01 07:55:40;;;;;;;6.40;3.15;;;;;;;;;;4991311;28;20302;-71
2023/05/01 07:58:05;;;;;;;7.47;3.22;;;;;;;;;;4988866;28;20250;-70
2023/05/01 08:00:31;;;;;;;7.95;3.22;;;;;;;;;;4992953;28;20187;-71
2023/05/01 08:02:56;;;;;;;7.95;4.15;;;;;;;;;;4994001;28;20270;-71
2023/05/01 08:05:21;;;;;;;6.15;3.65;;;;;;;;;;4994413;28;20226;-71
2023/05/01 08:07:46;;;;;;;8.18;4.28;;;;;;;;;;5006869;28;20617;-71
2023/05/01 08:10:11;;;;;;;8.13;3.20;;;;;;;;;;4991730;28;20176;-71
2023/05/01 08:12:37;;;;;;;6.05;3.85;;;;;;;;;;4989675;28;20261;-72
2023/05/01 08:15:02;;;;;;;5.43;3.13;;;;;;;;;;4994416;28;20761;-71
2023/05/01 08:17:27;;;;;;;4.40;2.85;;;;;;;;;;4994110;28;20297;-72
2023/05/01 08:19:55;;;;;;;5.63;3.30;;;;;;;;;;4995090;28;20646;-71
2023/05/01 08:22:20;;;;;;;4.38;3.17;;;;;;;;;;4994673;28;20235;-70
2023/05/01 08:24:45;;;;;;;5.55;3.33;;;;;;;;;;4985997;28;20224;-71
2023/05/01 08:27:11;;;;;;;7.38;4.20;;;;;;;;;;4987187;28;20180;-71
2023/05/01 08:29:36;;;;;;;9.65;3.95;;;;;;;;;;4994250;28;20194;-72
2023/05/01 08:32:01;;;;;;;6.07;3.42;;;;;;;;;;4994456;28;20184;-72
2023/05/01 08:34:26;;;;;;;7.35;3.65;;;;;;;;;;4993255;28;20186;-71
2023/05/01 08:36:51;;;;;;;6.15;3.83;;;;;;;;;;4993109;28;20176;-71
2023/05/01 08:39:17;;;;;;;9.10;3.60;;;;;;;;;;5010670;28;20596;-71
2023/05/01 08:41:46;;;;;;;8.63;3.83;;;;;;;;;;4993608;28;20207;-70
2023/05/01 08:44:12;;;;;;;5.68;3.47;;;;;;;;;;5008243;28;20680;-71
2023/05/01 08:46:57;;;;;;;6.38;3.15;;;;;;;;;;4994245;28;20218;-70
2023/05/01 08:49:23;;;;;;;7.07;3.55;;;;;;;;;;4994015;28;20267;-71
2023/05/01 08:51:51;;;;;;;4.05;3.17;;;;;;;;;;5002274;28;20262;-71
2023/05/01 08:54:18;;;;;;;7.80;3.70;;;;;;;;;;4994923;28;20176;-71
2023/05/01 08:56:45;;;;;;;6.38;3.33;;;;;;;;;;4992413;28;20219;-71
2023/05/01 08:59:13;;;;;;;6.05;3.65;;;;;;;;;;4993278;28;20191;-70
2023/05/01 09:01:38;;;;;;;7.25;3.35;;;;;;;;;;5008154;28;20252;-71
2023/05/01 09:04:05;;;;;;;4.95;3.55;;;;;;;;;;5005857;28;20204;-71
2023/05/01 09:06:31;;;;;;;7.28;3.28;;;;;;;;;;4993443;28;20291;-71
2023/05/01 09:08:56;;;;;;;6.18;3.17;;;;;;;;;;4992091;28;20315;-71
2023/05/01 09:11:22;;;;;;;5.43;3.20;;;;;;;;;;4983552;28;20665;-72
2023/05/01 09:13:47;;;;;;;6.80;3.88;;;;;;;;;;4987637;28;20265;-71
2023/05/01 09:16:12;;;;;;;6.47;3.63;;;;;;;;;;4992286;28;20215;-72
2023/05/01 09:18:38;;;;;;;8.25;3.47;;;;;;;;;;4991990;28;20171;-72
2023/05/01 09:21:04;;;;;;;4.88;3.20;;;;;;;;;;5008090;28;20207;-71
2023/05/01 09:23:30;;;;;;;7.82;3.80;;;;;;;;;;4991469;28;20179;-71
2023/05/01 09:25:56;;;;;;;7.43;3.97;;;;;;;;;;4993195;28;20575;-71
2023/05/01 09:28:43;;;;;;;6.75;3.65;;;;;;;;;;4990812;28;20182;-71
2023/05/01 09:31:22;;;;;;;4.90;3.17;;;;;;;;;;4993028;28;20180;-71
2023/05/01 09:34:06;;;;;;;4.57;3.20;;;;;;;;;;4992169;28;20656;-72
2023/05/01 09:36:32;;;;;;;6.75;3.05;;;;;;;;;;4986240;28;20552;-71
2023/05/01 09:39:01;;;;;;;7.82;3.40;;;;;;;;;;4991078;28;20176;-71
2023/05/01 09:41:27;;;;;;;6.90;3.90;;;;;;;;;;4992204;28;20218;-71
2023/05/01 09:43:53;;;;;;;7.53;4.00;;;;;;;;;;4988824;28;20536;-71
2023/05/01 09:46:19;;;;;;;6.13;3.85;;;;;;;;;;4993140;28;20199;-71
2023/05/01 09:48:51;;;;;;;4.90;3.55;;;;;;;;;;4992394;28;20532;-72
2023/05/01 09:51:23;;;;;;;8.55;4.18;;;;;;;;;;4993028;28;20196;-70
2023/05/01 09:53:48;;;;;;;6.40;4.57;;;;;;;;;;4993695;28;20662;-71
2023/05/01 09:56:13;;;;;;;6.25;4.13;;;;;;;;;;5007171;28;20234;-71
2023/05/01 09:58:39;;;;;;;6.85;3.70;;;;;;;;;;4994360;28;20179;-71
2023/05/01 10:01:04;;;;;;;6.38;3.72;;;;;;;;;;4989568;28;20305;-72
2023/05/01 10:03:30;;;;;;;7.03;3.42;;;;;;;;;;4992582;28;20752;-71
2023/05/01 10:05:59;;;;;;;4.95;3.85;;;;;;;;;;4984952;28;20684;-70
2023/05/01 10:08:25;;;;;;;7.45;4.35;;;;;;;;;;4988907;28;20202;-71
2023/05/01 10:11:02;;;;;;;8.13;4.13;;;;;;;;;;5004461;28;20677;-71
2023/05/01 10:13:27;;;;;;;8.55;4.20;;;;;;;;;;4993501;28;20563;-71
2023/05/01 10:15:53;;;;;;;10.15;4.30;;;;;;;;;;4979712;28;20275;-71
2023/05/01 10:18:18;;;;;;;6.20;4.50;;;;;;;;;;4977106;28;20179;-71
2023/05/01 10:20:43;;;;;;;7.40;4.85;;;;;;;;;;5001939;28;20271;-71
2023/05/01 10:23:09;;;;;;;6.88;4.28;;;;;;;;;;4989543;28;20594;-71
2023/05/01 10:25:35;;;;;;;6.68;4.38;;;;;;;;;;4999651;28;20192;-71
2023/05/01 10:28:02;;;;;;;8.90;4.40;;;;;;;;;;4988831;28;20539;-71
2023/05/01 10:30:27;;;;;;;7.53;4.57;;;;;;;;;;4986108;28;20263;-70
2023/05/01 10:32:53;;;;;;;6.00;4.18;;;;;;;;;;4986814;28;20271;-70
2023/05/01 10:35:20;;;;;;;6.40;4.47;;;;;;;;;;4978690;28;20681;-71
2023/05/01 10:37:46;;;;;;;6.60;4.63;;;;;;;;;;4984994;28;20665;-71
2023/05/01 10:40:30;;;;;;;6.38;4.38;;;;;;;;;;4987087;28;20676;-71
2023/05/01 10:43:17;;;;;;;5.78;4.65;;;;;;;;;;4996523;28;20203;-70
2023/05/01 10:45:43;;;;;;;7.35;4.65;;;;;;;;;;4985420;28;20206;-71
2023/05/01 10:48:08;;;;;;;7.95;4.25;;;;;;;;;;4985912;28;20238;-71
2023/05/01 10:50:34;;;;;;;9.10;4.80;;;;;;;;;;4989817;28;20164;-71
2023/05/01 10:53:11;;;;;;;6.57;3.90;;;;;;;;;;4992567;28;20175;-71
2023/05/01 10:55:46;;;;;;;7.40;4.05;;;;;;;;;;4981101;28;20241;-70
2023/05/01 10:58:12;;;;;;;5.85;4.15;;;;;;;;;;5002261;28;20941;-71
2023/05/01 11:00:38;;;;;;;7.43;4.70;;;;;;;;;;5004833;28;20184;-71
2023/05/01 11:03:21;;;;;;;7.65;4.00;;;;;;;;;;4991315;28;20573;-71
2023/05/01 11:05:59;;;;;;;6.57;4.15;;;;;;;;;;4987378;28;20191;-71
2023/05/01 11:08:37;;;;;;;9.98;4.05;;;;;;;;;;4991969;28;20179;-71
2023/05/01 11:11:20;;;;;;;6.75;4.20;;;;;;;;;;4984260;28;20241;-71
2023/05/01 11:13:58;;;;;;;8.48;4.40;;;;;;;;;;4986180;28;20249;-71
2023/05/01 11:16:32;;;;;;;7.75;4.38;;;;;;;;;;4979227;28;20285;-70
2023/05/01 11:18:57;;;;;;;8.32;4.55;;;;;;;;;;4987148;28;20233;-70
2023/05/01 11:21:28;;;;;;;8.82;4.97;;;;;;;;;;4986803;28;20275;-70
2023/05/01 11:23:53;;;;;;;10.85;5.57;;;;;;;;;;4990528;28;20538;-71
2023/05/01 11:26:21;;;;;;;8.20;4.88;;;;;;;;;;4990765;28;20298;-70
2023/05/01 11:28:46;;;;;;;7.38;4.68;;;;;;;;;;4990383;28;20171;-70
2023/05/01 11:31:16;;;;;;;8.75;4.90;;;;;;;;;;5002799;28;20177;-70
2023/05/01 11:33:41;;;;;;;7.13;4.35;;;;;;;;;;4990104;28;20373;-70
2023/05/01 11:36:06;;;;;;;8.02;4.97;;;;;;;;;;4984347;28;20689;-71
2023/05/01 11:38:31;;;;;;;7.53;3.85;;;;;;;;;;4989928;28;20179;-71
2023/05/01 11:40:57;;;;;;;7.15;4.28;;;;;;;;;;5003930;28;20186;-72
2023/05/01 11:43:24;;;;;;;6.63;3.97;;;;;;;;;;5003585;28;20242;-72
2023/05/01 11:45:51;;;;;;;11.07;4.47;;;;;;;;;;4989990;28;20219;-70
2023/05/01 11:48:16;;;;;;;6.47;4.18;;;;;;;;;;5011714;28;20179;-70
2023/05/01 11:50:42;;;;;;;14.52;6.00;;;;;;;;;;4990214;28;20621;-70
2023/05/01 11:53:16;;;;;;;11.23;4.03;;;;;;;;;;4980883;28;21023;-71
2023/05/01 11:55:42;;;;;;;9.52;3.63;;;;;;;;;;5014504;22;20231;-69
2023/05/01 11:58:07;;;;;;;9.10;3.58;;;;;;;;;;4990338;28;20266;-69
2023/05/01 12:00:40;;;;;;;7.18;3.60;;;;;;;;;;4990723;28;20237;-69
2023/05/01 12:03:10;;;;;;;6.07;4.10;;;;;;;;;;4988071;28;20210;-69
2023/05/01 12:05:37;;;;;;;6.15;3.30;;;;;;;;;;4989965;28;20214;-69
2023/05/01 12:08:07;;;;;;;8.82;3.20;;;;;;;;;;4990762;28;20186;-71
2023/05/01 12:10:32;;;;;;;8.85;3.50;;;;;;;;;;4984360;28;20190;-69
2023/05/01 12:12:58;;;;;;;5.57;4.13;;;;;;;;;;4991772;28;20183;-69
2023/05/01 12:15:23;;;;;;;5.05;3.38;;;;;;;;;;4989599;28;20279;-69
2023/05/01 12:17:49;;;;;;;6.07;3.92;;;;;;;;;;4990661;28;20184;-69
2023/05/01 12:20:14;;;;;;;5.70;3.88;;;;;;;;;;4988866;28;20553;-69
2023/05/01 12:22:58;;;;;;;5.78;4.00;;;;;;;;;;4990525;28;20261;-69
2023/05/01 12:25:28;;;;;;;5.93;3.35;;;;;;;;;;4990947;28;20198;-69
2023/05/01 12:27:54;;;;;;;5.95;3.70;;;;;;;;;;4989205;28;20175;-69
2023/05/01 12:30:23;;;;;;;5.53;3.28;;;;;;;;;;4990292;28;20299;-70
2023/05/01 12:32:49;;;;;;;5.65;3.22;;;;;;;;;;4990644;28;20183;-69
2023/05/01 12:35:15;;;;;;;7.38;4.05;;;;;;;;;;4990680;28;20207;-68
2023/05/01 12:37:40;;;;;;;8.55;4.05;;;;;;;;;;4990335;28;20184;-69
2023/05/01 12:40:11;;;;;;;4.82;3.30;;;;;;;;;;4991306;28;20188;-69
2023/05/01 12:42:37;;;;;;;4.75;3.42;;;;;;;;;;4990195;28;20230;-69
2023/05/01 12:45:02;;;;;;;6.13;3.70;;;;;;;;;;4992908;28;20642;-69
2023/05/01 12:47:34;;;;;;;5.53;3.97;;;;;;;;;;4994999;28;20661;-69
2023/05/01 12:50:01;;;;;;;4.90;3.78;;;;;;;;;;4993631;28;20642;-70
2023/05/01 12:52:27;;;;;;;7.63;3.58;;;;;;;;;;4986590;28;20270;-68
2023/05/01 12:55:00;;;;;;;6.60;3.63;;;;;;;;;;4987415;28;20188;-69
2023/05/01 12:57:25;;;;;;;9.57;4.32;;;;;;;;;;4993208;28;20278;-69
2023/05/01 12:59:56;;;;;;;7.97;4.13;;;;;;;;;;4991286;28;20724;-68
2023/05/01 13:02:28;;;;;;;7.93;4.43;;;;;;;;;;4994386;28;20210;-68
2023/05/01 13:05:03;;;;;;;10.20;4.68;;;;;;;;;;4991971;28;20541;-68
2023/05/01 13:07:29;;;;;;;8.60;3.67;;;;;;;;;;4993620;28;20176;-68
2023/05/01 13:09:56;;;;;;;10.80;4.22;;;;;;;;;;4985572;28;20187;-70
2023/05/01 13:12:21;;;;;;;5.78;3.72;;;;;;;;;;4991554;28;20557;-69
2023/05/01 13:14:47;;;;;;;8.43;3.65;;;;;;;;;;4994397;28;20183;-68
2023/05/01 13:17:20;;;;;;;6.53;3.72;;;;;;;;;;4993084;28;20580;-68
2023/05/01 13:19:51;;;;;;;7.95;4.28;;;;;;;;;;4993493;28;20183;-68
2023/05/01 13:22:16;;;;;;;5.60;3.92;;;;;;;;;;4992796;28;20207;-69
2023/05/01 13:24:45;;;;;;;6.82;3.67;;;;;;;;;;4993551;28;20198;-69
2023/05/01 13:27:10;;;;;;;8.15;3.63;;;;;;;;;;4987197;28;20697;-69
2023/05/01 13:29:36;;;;;;;6.60;3.63;;;;;;;;;;4988349;28;20187;-68
2023/05/01 13:32:06;;;;;;;4.70;3.47;;;;;;;;;;4992686;28;20183;-68
2023/05/01 13:34:32;;;;;;;5.60;4.10;;;;;;;;;;4993184;28;20174;-68
2023/05/01 13:36:58;;;;;;;5.72;3.95;;;;;;;;;;4993658;28;20195;-69
2023/05/01 13:39:23;;;;;;;6.75;4.13;;;;;;;;;;4992586;28;20175;-69
2023/05/01 13:41:49;;;;;;;8.50;4.13;;;;;;;;;;4990274;28;20578;-69
2023/05/01 13:44:15;;;;;;;7.90;4.40;;;;;;;;;;4997425;28;20204;-69
2023/05/01 13:46:41;;;;;;;7.00;4.25;;;;;;;;;;4990321;28;20202;-69
2023/05/01 13:49:07;;;;;;;6.13;4.60;;;;;;;;;;4992908;28;20172;-69
2023/05/01 13:51:35;;;;;;;6.53;4.30;;;;;;;;;;4992151;28;20183;-69
2023/05/01 13:54:01;;;;;;;4.88;3.42;;;;;;;;;;4993155;28;20666;-69
2023/05/01 13:56:26;;;;;;;15.80;3.95;;;;;;;;;;4991957;28;20257;-69
2023/05/01 13:58:51;;;;;;;6.67;3.70;;;;;;;;;;4993106;28;20196;-69
2023/05/01 14:01:18;;;;;;;6.22;4.28;;;;;;;;;;4984494;28;20493;-69
2023/05/01 14:03:44;;;;;;;6.93;3.58;;;;;;;;;;4987223;28;20183;-69
2023/05/01 14:06:12;;;;;;;10.50;4.43;;;;;;;;;;4991778;28;20678;-69
2023/05/01 14:08:38;;;;;;;7.97;4.75;;;;;;;;;;4991664;28;20168;-69
2023/05/01 14:11:04;;;;;;;6.57;3.85;;;;;;;;;;4992373;28;20602;-69
2023/05/01 14:13:30;;;;;;;9.25;4.57;;;;;;;;;;4992847;28;20171;-69
2023/05/01 14:15:55;;;;;;;4.70;3.58;;;;;;;;;;4997394;28;20203;-69
2023/05/01 14:18:21;;;;;;;6.27;3.77;;;;;;;;;;4979748;28;20248;-69
2023/05/01 14:20:46;;;;;;;6.95;3.85;;;;;;;;;;4998343;28;21016;-69
2023/05/01 14:23:14;;;;;;;7.72;4.38;;;;;;;;;;4989622;28;20302;-69
2023/05/01 14:25:39;;;;;;;4.82;3.42;;;;;;;;;;4984542;28;20232;-69
2023/05/01 14:28:06;;;;;;;4.57;3.15;;;;;;;;;;4990648;28;20203;-69
2023/05/01 14:30:33;;;;;;;4.22;3.15;;;;;;;;;;4991527;28;20661;-69
2023/05/01 14:33:02;;;;;;;4.57;3.05;;;;;;;;;;4991933;28;20184;-68
2023/05/01 14:35:27;;;;;;;7.30;3.15;;;;;;;;;;4990732;28;20279;-68
2023/05/01 14:37:54;;;;;;;5.78;3.42;;;;;;;;;;4991601;28;20338;-68
2023/05/01 14:40:22;;;;;;;8.80;3.63;;;;;;;;;;4992542;28;20233;-68